South Thompson, OH

7:54 AM EDT on April 25, 2017 (GMT -0400)
MOH166 | | Change Station

Elev 1269 ft 41.66 °N, 81.04 °W | Updated 6 hours ago

Light Rain
Light Rain
58.0 °F
Feels Like 58.0 °F
N
4.0
Wind Variable Wind from South
Gusts 9.0 mph

Today
High -- | Low -- °F
--% Chance of Precip.
Yesterday
High -- | Low -- °F
Precip. -- in
Pressure 29.93 in
Visibility 10.0 miles
Clouds Overcast 7000 ft
Dew Point 42.0 °F
Humidity 54%
Rainfall in
Snow Depth Not available.
6:28 AM 8:16 PM
Waning Crescent, 2% visible
METAR KHZY 251053Z AUTO 14007KT 10SM -RA OVC070 12/06 A2993 RMK AO2 RAB47 SLP134 P0000 T01220056 TSNO
Pressure 29.93 in
Visibility 10.0 miles
Clouds Overcast 7000 ft
Dew Point 42.0 °F
Humidity 54%
Rainfall in
Snow Depth Not available.
6:28 AM 8:16 PM
Waning Crescent, 2% visible
METAR KHZY 251053Z AUTO 14007KT 10SM -RA OVC070 12/06 A2993 RMK AO2 RAB47 SLP134 P0000 T01220056 TSNO

Get Severe Weather Alerts

Thanks for signing up!

Be on the lookout for a verification email in your inbox.

You'll start receiving the daily forecast at 8 AM.

×

10-Day Weather Forecast

Almanac

Astronomy

Apr. 25, 2017 Rise Set
Actual Time
Civil Twilight
Nautical Twilight
Astronomical Twilight
Moon
Length of Visible Light
Length of Day
Tomorrow will be .
, % of the Moon is Illuminated

Today's Extremes

State Highs State Lows

Community

WunderPhotos

WunderBlog® & News

Nearby

Air Quality

  Air Quality AQ Index Pollutant
Not available.

Snow Depth

Station Depth Elevation

Earthquake Activity

City Distance Mag. Time & Date
Minimum magnitude displayed is 2.5.

Coastal Water Temperatures

Place Temperature

Stations

Nearby Weather Stations

Station Location Temp. Windchill Dew Point Humidity Wind Precip. Elev Updated Type
                   

Watches & Warnings

There are currently no watches in effect.